createdAt,value
2018-10-19T00:00:03.526Z,98737.48
2018-10-19T00:02:34.213Z,98741.21
2018-10-19T00:05:05.198Z,98737.80
2018-10-19T00:07:36.026Z,98740.68
2018-10-19T00:10:08.350Z,98743.76
2018-10-19T00:12:39.493Z,98740.77
2018-10-19T00:15:10.403Z,98732.66
2018-10-19T00:17:41.354Z,98740.68
2018-10-19T00:20:12.106Z,98729.83
2018-10-19T00:22:43.199Z,98729.83
2018-10-19T00:25:13.886Z,98729.75
2018-10-19T00:27:44.933Z,98728.08
2018-10-19T00:30:15.802Z,98730.45
2018-10-19T00:32:46.523Z,98736.73
2018-10-19T00:35:17.354Z,98735.42
2018-10-19T00:37:48.144Z,98736.41
2018-10-19T00:40:19.062Z,98737.27
2018-10-19T00:42:49.877Z,98743.53
2018-10-19T00:45:24.895Z,98739.98
2018-10-19T00:47:55.695Z,98740.20
2018-10-19T00:50:26.305Z,98741.39
2018-10-19T00:52:57.216Z,98743.56
2018-10-19T00:55:27.981Z,98743.56
2018-10-19T00:57:58.911Z,98742.23
2018-10-19T01:00:29.755Z,98743.16
2018-10-19T01:03:00.376Z,98739.08
2018-10-19T01:05:31.290Z,98734.20
2018-10-19T01:08:02.376Z,98729.94
2018-10-19T01:10:33.033Z,98728.11
2018-10-19T01:13:04.261Z,98732.11
2018-10-19T01:15:35.088Z,98730.18
2018-10-19T01:18:06.064Z,98732.81
2018-10-19T01:20:36.715Z,98730.88
2018-10-19T01:23:07.805Z,98734.58
2018-10-19T01:25:42.129Z,98732.65
2018-10-19T01:28:13.291Z,98743.06
2018-10-19T01:30:45.193Z,98734.27
2018-10-19T01:33:16.221Z,98736.59
2018-10-19T01:35:47.156Z,98730.59
2018-10-19T01:38:17.848Z,98735.41
2018-10-19T01:40:48.718Z,98728.75
2018-10-19T01:43:19.751Z,98728.66
2018-10-19T01:45:55.646Z,98731.28
2018-10-19T01:48:26.808Z,98731.98
2018-10-19T01:50:58.066Z,98734.37
2018-10-19T01:53:28.950Z,98725.76
2018-10-19T01:55:59.692Z,98720.03
2018-10-19T01:58:30.594Z,98717.64
2018-10-19T02:01:01.543Z,98711.69
2018-10-19T02:03:32.337Z,98719.56
2018-10-19T02:06:03.121Z,98715.73
2018-10-19T02:08:34.050Z,98717.05
2018-10-19T02:11:05.230Z,98723.73
2018-10-19T02:13:36.208Z,98725.59
2018-10-19T02:16:07.826Z,98733.45
2018-10-19T02:18:39.515Z,98719.19
2018-10-19T02:21:10.252Z,98713.57
2018-10-19T02:23:40.897Z,98711.41
2018-10-19T02:26:11.664Z,98710.44
2018-10-19T02:28:42.405Z,98709.09
2018-10-19T02:31:14.004Z,98717.94
2018-10-19T02:33:45.220Z,98715.08
2018-10-19T02:36:15.931Z,98724.05
2018-10-19T02:38:46.703Z,98724.30
2018-10-19T02:41:17.520Z,98729.06
2018-10-19T02:43:48.107Z,98729.77
2018-10-19T02:46:18.996Z,98728.94
2018-10-19T02:48:50.632Z,98720.34
2018-10-19T02:51:21.520Z,98711.77
2018-10-19T02:53:52.342Z,98711.77
2018-10-19T02:56:23.171Z,98721.18
2018-10-19T02:58:53.935Z,98724.05
2018-10-19T03:01:24.931Z,98720.47
2018-10-19T03:03:55.842Z,98725.88
2018-10-19T03:06:27.793Z,98728.87
2018-10-19T03:08:58.632Z,98727.67
2018-10-19T03:11:29.668Z,98736.84
2018-10-19T03:14:00.426Z,98740.30
2018-10-19T03:16:31.362Z,98734.83
2018-10-19T03:19:02.209Z,98741.26
2018-10-19T03:21:39.612Z,98749.59
2018-10-19T03:24:10.421Z,98756.96
2018-10-19T03:26:41.481Z,98761.02
2018-10-19T03:29:12.377Z,98755.06
2018-10-19T03:31:43.148Z,98759.11
2018-10-19T03:34:13.897Z,98752.09
2018-10-19T03:36:44.909Z,98757.70
2018-10-19T03:39:16.111Z,98763.99
2018-10-19T03:41:47.959Z,98763.52
2018-10-19T03:44:18.858Z,98764.47
2018-10-19T03:46:49.868Z,98758.39
2018-10-19T03:49:21.613Z,98759.11
2018-10-19T03:51:52.582Z,98771.97
2018-10-19T03:54:23.385Z,98771.12
2018-10-19T03:56:54.229Z,98775.20
2018-10-19T03:59:25.147Z,98763.03
2018-10-19T04:01:56.076Z,98761.72
2018-10-19T04:04:33.606Z,98772.81
2018-10-19T04:07:06.696Z,98783.91
2018-10-19T04:09:37.587Z,98784.92
2018-10-19T04:12:08.333Z,98784.98
2018-10-19T04:14:39.262Z,98785.86
2018-10-19T04:17:10.130Z,98779.19
2018-10-19T04:19:40.988Z,98772.31
2018-10-19T04:22:11.721Z,98769.45
2018-10-19T04:24:42.607Z,98768.77
2018-10-19T04:27:13.351Z,98774.06
2018-10-19T04:29:44.929Z,98777.78
2018-10-19T04:32:15.663Z,98784.22
2018-10-19T04:34:46.375Z,98784.50
2018-10-19T04:37:17.268Z,98790.80
2018-10-19T04:39:48.046Z,98788.30
2018-10-19T04:42:19.297Z,98788.43
2018-10-19T04:44:50.548Z,98792.57
2018-10-19T04:47:21.518Z,98789.36
2018-10-19T04:49:52.404Z,98791.59
2018-10-19T04:52:23.756Z,98789.06
2018-10-19T04:54:54.649Z,98792.25
2018-10-19T04:57:25.411Z,98793.84
2018-10-19T04:59:56.282Z,98790.15
2018-10-19T05:02:27.459Z,98785.59
2018-10-19T05:04:58.402Z,98786.64
2018-10-19T05:07:29.309Z,98786.28
2018-10-19T05:10:00.653Z,98789.17
2018-10-19T05:12:31.316Z,98785.49
2018-10-19T05:15:02.184Z,98783.08
2018-10-19T05:17:32.991Z,98783.20
2018-10-19T05:20:03.956Z,98784.51
2018-10-19T05:22:34.664Z,98789.03
2018-10-19T05:25:06.746Z,98790.84
2018-10-19T05:27:37.680Z,98801.76
2018-10-19T05:30:12.031Z,98795.81
2018-10-19T05:32:43.672Z,98794.50
2018-10-19T05:35:15.291Z,98799.49
2018-10-19T05:37:46.322Z,98799.87
2018-10-19T05:40:17.774Z,98800.01
2018-10-19T05:42:49.826Z,98797.33
2018-10-19T05:45:20.754Z,98798.33
2018-10-19T05:47:51.753Z,98798.34
2018-10-19T05:50:22.905Z,98802.06
2018-10-19T05:52:54.200Z,98804.31
2018-10-19T05:55:25.192Z,98807.23
2018-10-19T05:57:59.160Z,98811.50
2018-10-19T06:00:30.240Z,98809.50
2018-10-19T06:03:01.374Z,98807.00
2018-10-19T06:05:34.081Z,98810.59
2018-10-19T06:08:05.057Z,98813.02
2018-10-19T06:10:38.597Z,98817.30
2018-10-19T06:13:09.883Z,98818.83
2018-10-19T06:15:41.784Z,98832.05
2018-10-19T06:18:15.315Z,98842.00
2018-10-19T06:20:46.995Z,98847.63
2018-10-19T06:23:18.363Z,98854.54
2018-10-19T06:25:49.495Z,98855.28
2018-10-19T06:28:20.549Z,98855.36
2018-10-19T06:30:51.963Z,98851.97
2018-10-19T06:33:22.892Z,98858.39
2018-10-19T06:35:54.360Z,98858.63
2018-10-19T06:38:25.705Z,98868.98
2018-10-19T06:40:56.872Z,98875.45
2018-10-19T06:43:27.931Z,98875.24
2018-10-19T06:45:58.928Z,98876.76
2018-10-19T06:48:30.138Z,98876.23
2018-10-19T06:51:01.551Z,98883.69
2018-10-19T06:53:34.428Z,98889.89
2018-10-19T06:56:05.357Z,98895.37
2018-10-19T06:58:36.602Z,98894.88
2018-10-19T07:01:08.069Z,98896.66
2018-10-19T07:03:38.911Z,98891.81
2018-10-19T07:06:09.903Z,98905.66
2018-10-19T07:08:41.132Z,98901.17
2018-10-19T07:11:12.284Z,98904.27
2018-10-19T07:13:43.467Z,98902.38
2018-10-19T07:16:14.822Z,98905.64
2018-10-19T07:18:46.233Z,98909.06
2018-10-19T07:21:17.331Z,98911.86
2018-10-19T07:23:48.244Z,98908.81
2018-10-19T07:26:19.373Z,98904.81
2018-10-19T07:28:50.493Z,98912.28
2018-10-19T07:31:21.145Z,98916.86
2018-10-19T07:33:52.320Z,98926.20
2018-10-19T07:36:23.266Z,98921.17
2018-10-19T07:38:54.781Z,98922.95
2018-10-19T07:41:25.742Z,98925.84
2018-10-19T07:43:56.756Z,98925.24
2018-10-19T07:46:27.896Z,98926.57
2018-10-19T07:48:58.919Z,98926.41
2018-10-19T07:51:29.954Z,98923.85
2018-10-19T07:54:01.044Z,98928.77
2018-10-19T07:56:32.039Z,98933.70
2018-10-19T07:59:03.635Z,98931.59
2018-10-19T08:01:34.632Z,98938.22
2018-10-19T08:04:05.727Z,98933.67
2018-10-19T08:06:36.680Z,98940.41
2018-10-19T08:09:11.534Z,98936.07
2018-10-19T08:11:42.581Z,98942.41
2018-10-19T08:14:13.484Z,98943.76
2018-10-19T08:16:44.275Z,98937.93
2018-10-19T08:19:14.946Z,98941.94
2018-10-19T08:21:45.766Z,98929.31
2018-10-19T08:24:17.109Z,98927.50
2018-10-19T08:26:48.249Z,98936.66
2018-10-19T08:29:19.263Z,98935.72
2018-10-19T08:31:50.328Z,98931.83
2018-10-19T08:34:21.096Z,98934.45
2018-10-19T08:36:51.953Z,98930.34
2018-10-19T08:39:22.805Z,98936.51
2018-10-19T08:41:55.423Z,98933.53
2018-10-19T08:44:26.347Z,98933.84
2018-10-19T08:46:57.173Z,98933.00
2018-10-19T08:49:28.895Z,98933.49
2018-10-19T08:52:00.159Z,98932.79
2018-10-19T08:54:31.016Z,98937.38
2018-10-19T08:57:01.802Z,98933.20
2018-10-19T08:59:32.717Z,98937.64
2018-10-19T09:02:04.383Z,98936.81
2018-10-19T09:04:35.289Z,98942.37
2018-10-19T09:07:06.562Z,98937.03
2018-10-19T09:09:37.328Z,98933.89
2018-10-19T09:12:08.303Z,98936.97
2018-10-19T09:14:53.267Z,98935.41
2018-10-19T09:17:25.877Z,98939.14
2018-10-19T09:19:56.777Z,98927.19
2018-10-19T09:22:28.826Z,98927.39
2018-10-19T09:24:59.747Z,98929.64
2018-10-19T09:27:30.612Z,98927.55
2018-10-19T09:30:01.609Z,98923.65
2018-10-19T09:32:32.497Z,98919.69
2018-10-19T09:35:03.412Z,98909.17
2018-10-19T09:37:34.333Z,98909.81
2018-10-19T09:40:05.632Z,98911.28
2018-10-19T09:42:36.620Z,98911.61
2018-10-19T09:45:08.450Z,98917.02
2018-10-19T09:47:39.810Z,98900.19
2018-10-19T09:50:11.898Z,98897.96
2018-10-19T09:52:43.104Z,98900.02
2018-10-19T09:55:14.229Z,98901.35
2018-10-19T09:57:45.599Z,98897.70
2018-10-19T10:00:21.555Z,98907.12
2018-10-19T10:02:53.305Z,98906.27
2018-10-19T10:05:24.148Z,98905.50
2018-10-19T10:07:56.133Z,98909.00
2018-10-19T10:10:26.949Z,98912.25
2018-10-19T10:12:58.645Z,98911.05
2018-10-19T10:15:29.728Z,98906.72
2018-10-19T10:18:00.584Z,98903.63
2018-10-19T10:20:32.104Z,98906.82
2018-10-19T10:23:02.818Z,98904.77
2018-10-19T10:25:34.584Z,98900.86
2018-10-19T10:28:05.851Z,98903.00
2018-10-19T10:30:37.093Z,98899.38
2018-10-19T10:33:09.440Z,98886.31
2018-10-19T10:35:41.033Z,98880.97
2018-10-19T10:38:12.099Z,98883.28
2018-10-19T10:40:43.568Z,98879.45
2018-10-19T10:43:14.600Z,98876.20
2018-10-19T10:45:45.352Z,98877.69
2018-10-19T10:48:17.305Z,98871.81
2018-10-19T10:50:48.524Z,98867.62
2018-10-19T10:53:20.113Z,98868.25
2018-10-19T10:55:50.961Z,98861.34
2018-10-19T10:58:21.883Z,98858.80
2018-10-19T11:00:52.672Z,98853.22
2018-10-19T11:03:23.807Z,98846.37
2018-10-19T11:05:55.127Z,98846.55
2018-10-19T11:08:25.925Z,98846.89
2018-10-19T11:11:11.034Z,98839.41
2018-10-19T11:13:43.233Z,98837.50
2018-10-19T11:16:14.963Z,98835.81
2018-10-19T11:18:45.969Z,98825.75
2018-10-19T11:21:17.104Z,98824.33
2018-10-19T11:23:49.346Z,98828.80
2018-10-19T11:26:22.118Z,98832.72
2018-10-19T11:28:53.726Z,98831.67
2018-10-19T11:31:25.099Z,98825.27
2018-10-19T11:33:56.242Z,98825.48
2018-10-19T11:36:27.194Z,98827.41
2018-10-19T11:38:58.036Z,98825.53
2018-10-19T11:41:31.487Z,98819.81
2018-10-19T11:44:02.753Z,98819.69
2018-10-19T11:46:35.285Z,98816.62
2018-10-19T11:49:06.824Z,98811.14
2018-10-19T11:51:38.083Z,98813.77
2018-10-19T11:54:09.185Z,98808.17
2018-10-19T11:56:40.393Z,98811.28
2018-10-19T11:59:11.436Z,98809.30
2018-10-19T12:01:42.678Z,98810.84
2018-10-19T12:04:13.927Z,98808.87
2018-10-19T12:06:45.188Z,98814.94
2018-10-19T12:09:17.374Z,98800.76
2018-10-19T12:11:48.312Z,98796.33
2018-10-19T12:14:20.429Z,98789.01
2018-10-19T12:16:52.194Z,98793.62
2018-10-19T12:19:23.358Z,98796.87
2018-10-19T12:21:54.428Z,98794.23
2018-10-19T12:24:25.439Z,98790.39
2018-10-19T12:26:56.406Z,98787.66
2018-10-19T12:29:27.254Z,98787.77
2018-10-19T12:31:58.204Z,98786.95
2018-10-19T12:34:29.362Z,98783.23
2018-10-19T12:37:00.837Z,98774.69
2018-10-19T12:39:32.184Z,98774.56
2018-10-19T12:42:04.055Z,98773.36
2018-10-19T12:44:35.590Z,98771.61
2018-10-19T12:47:22.852Z,98774.80
2018-10-19T12:49:54.091Z,98772.94
2018-10-19T12:52:25.425Z,98771.92
2018-10-19T12:54:56.938Z,98774.03
2018-10-19T12:57:28.620Z,98772.52
2018-10-19T13:00:01.360Z,98766.58
2018-10-19T13:02:32.680Z,98763.50
2018-10-19T13:05:03.790Z,98765.75
2018-10-19T13:07:35.080Z,98776.16
2018-10-19T13:10:06.592Z,98771.63
2018-10-19T13:12:38.173Z,98764.95
2018-10-19T13:15:09.231Z,98761.87
2018-10-19T13:17:40.740Z,98759.32
2018-10-19T13:20:11.901Z,98757.56
2018-10-19T13:22:42.908Z,98757.98
2018-10-19T13:25:14.322Z,98757.47
2018-10-19T13:27:45.014Z,98750.50
2018-10-19T13:30:16.226Z,98752.45
2018-10-19T13:32:47.441Z,98759.33
2018-10-19T13:35:18.655Z,98750.37
2018-10-19T13:37:49.604Z,98746.16
2018-10-19T13:40:20.567Z,98740.44
2018-10-19T13:42:51.504Z,98748.93
2018-10-19T13:45:22.300Z,98747.81
2018-10-19T13:47:54.347Z,98746.73
2018-10-19T13:50:25.714Z,98740.65
2018-10-19T13:52:56.928Z,98747.73
2018-10-19T13:55:27.825Z,98741.98
2018-10-19T13:57:59.386Z,98749.91
2018-10-19T14:00:30.860Z,98752.46
2018-10-19T14:03:02.307Z,98751.79
2018-10-19T14:05:34.290Z,98754.23
2018-10-19T14:08:05.568Z,98747.34
2018-10-19T14:10:37.015Z,98753.47
2018-10-19T14:13:08.778Z,98754.12
2018-10-19T14:15:40.120Z,98755.77
2018-10-19T14:18:11.230Z,98756.86
2018-10-19T14:20:41.809Z,98751.73
2018-10-19T14:23:14.081Z,98747.28
2018-10-19T14:25:45.685Z,98747.19
2018-10-19T14:28:17.877Z,98742.66
2018-10-19T14:30:48.668Z,98743.48
2018-10-19T14:33:19.612Z,98740.55
2018-10-19T14:35:50.579Z,98739.14
2018-10-19T14:38:21.854Z,98737.61
2018-10-19T14:40:53.139Z,98742.71
2018-10-19T14:43:24.238Z,98744.15
2018-10-19T14:45:55.317Z,98748.77
2018-10-19T14:48:26.292Z,98744.63
2018-10-19T15:01:46.434Z,98745.80
2018-10-19T15:04:17.864Z,98743.89
2018-10-19T15:06:49.412Z,98737.84
2018-10-19T15:09:20.412Z,98744.54
2018-10-19T15:11:51.655Z,98747.67
2018-10-19T15:14:22.900Z,98746.77
2018-10-19T15:16:53.899Z,98745.38
2018-10-19T15:19:25.218Z,98741.20
2018-10-19T15:21:56.229Z,98736.05
2018-10-19T15:24:27.448Z,98744.92
2018-10-19T15:26:58.509Z,98752.02
2018-10-19T15:29:30.049Z,98749.59
2018-10-19T15:32:01.524Z,98750.42
2018-10-19T15:34:33.125Z,98750.33
2018-10-19T15:37:04.295Z,98750.42
2018-10-19T15:39:36.149Z,98754.70
2018-10-19T15:42:07.289Z,98761.42
2018-10-19T15:44:38.428Z,98767.82
2018-10-19T15:47:09.686Z,98768.48
2018-10-19T15:49:40.513Z,98770.20
2018-10-19T15:52:11.269Z,98760.41
2018-10-19T15:54:42.337Z,98764.39
2018-10-19T15:57:13.030Z,98761.75
2018-10-19T15:59:44.073Z,98763.95
2018-10-19T16:02:15.399Z,98764.72
2018-10-19T16:04:47.023Z,98753.31
2018-10-19T16:07:18.617Z,98757.34
2018-10-19T16:09:49.533Z,98756.55
2018-10-19T16:12:20.352Z,98762.69
2018-10-19T16:14:51.115Z,98766.11
2018-10-19T16:17:21.875Z,98760.36
2018-10-19T16:19:53.125Z,98762.22
2018-10-19T16:22:23.990Z,98766.75
2018-10-19T16:24:56.104Z,98769.02
2018-10-19T16:27:27.411Z,98779.91
2018-10-19T16:30:00.044Z,98785.80
2018-10-19T16:32:30.959Z,98789.44
2018-10-19T16:35:02.139Z,98799.06
2018-10-19T16:37:34.355Z,98804.13
2018-10-19T16:40:05.291Z,98806.19
2018-10-19T16:42:35.912Z,98807.25
2018-10-19T16:45:08.079Z,98808.94
2018-10-19T16:47:39.527Z,98810.98
2018-10-19T16:50:11.016Z,98814.96
2018-10-19T16:52:42.283Z,98815.32
2018-10-19T16:55:13.469Z,98820.56
2018-10-19T16:57:44.274Z,98820.90
2018-10-19T17:00:15.587Z,98829.81
2018-10-19T17:02:46.267Z,98828.31
2018-10-19T17:05:18.021Z,98836.27
2018-10-19T17:07:49.993Z,98844.39
2018-10-19T17:10:22.064Z,98845.36
2018-10-19T17:12:53.399Z,98848.67
2018-10-19T17:15:25.510Z,98847.01
2018-10-19T17:17:56.472Z,98856.58
2018-10-19T17:20:28.447Z,98861.66
2018-10-19T17:23:00.126Z,98867.95
2018-10-19T17:25:31.106Z,98868.53
2018-10-19T17:28:02.871Z,98873.26
2018-10-19T17:30:34.026Z,98883.45
2018-10-19T17:33:05.416Z,98884.88
2018-10-19T17:35:36.827Z,98895.41
2018-10-19T17:38:08.365Z,98902.48
2018-10-19T17:40:39.878Z,98906.69
2018-10-19T17:43:11.309Z,98903.31
2018-10-19T17:45:42.640Z,98908.70
2018-10-19T17:48:14.162Z,98905.63
2018-10-19T17:50:45.216Z,98915.69
2018-10-19T17:53:16.931Z,98929.88
2018-10-19T17:55:49.018Z,98930.69
2018-10-19T17:58:20.347Z,98936.17
2018-10-19T18:00:51.791Z,98939.59
2018-10-19T18:03:22.751Z,98938.28
2018-10-19T18:05:53.958Z,98945.50
2018-10-19T18:08:25.319Z,98944.03
2018-10-19T18:10:56.947Z,98949.09
2018-10-19T18:13:28.100Z,98948.97
2018-10-19T18:15:59.120Z,98945.27
2018-10-19T18:18:30.645Z,98944.14
2018-10-19T18:21:01.972Z,98945.89
2018-10-19T18:23:33.306Z,98950.70
2018-10-19T18:26:04.621Z,98950.81
2018-10-19T18:28:36.100Z,98959.75
2018-10-19T18:31:14.231Z,98955.69
2018-10-19T18:33:48.473Z,98958.07
2018-10-19T18:36:20.194Z,98961.09
2018-10-19T18:38:53.898Z,98960.98
2018-10-19T18:41:27.036Z,98966.92
2018-10-19T18:44:00.617Z,98972.09
2018-10-19T18:46:33.944Z,98974.81
2018-10-19T18:49:07.534Z,98976.55
2018-10-19T18:51:41.444Z,98976.41
2018-10-19T18:54:14.760Z,98979.88
2018-10-19T18:56:48.981Z,98985.64
2018-10-19T18:59:23.153Z,98984.14
2018-10-19T19:01:56.564Z,98992.59
2018-10-19T19:04:29.842Z,98992.59
2018-10-19T19:07:03.709Z,98997.69
2018-10-19T19:09:37.075Z,98990.34
2018-10-19T19:12:10.014Z,99001.02
2018-10-19T19:14:44.034Z,98995.83
2018-10-19T19:17:23.021Z,98995.40
2018-10-19T19:20:01.994Z,99000.45
2018-10-19T19:22:35.478Z,98997.54
2018-10-19T19:25:12.992Z,99004.06
2018-10-19T19:27:46.395Z,99009.62
2018-10-19T19:30:21.190Z,99019.84
2018-10-19T19:40:01.333Z,99029.77
2018-10-19T19:42:40.172Z,99023.47
2018-10-19T19:45:18.381Z,99028.67
2018-10-19T19:47:54.444Z,99026.58
2018-10-19T19:50:26.098Z,99026.58
2018-10-19T19:52:59.295Z,99031.15
2018-10-19T19:55:30.683Z,99039.34
2018-10-19T19:58:02.126Z,99043.91
2018-10-19T20:00:37.230Z,99042.63
2018-10-19T20:03:08.808Z,99042.44
2018-10-19T20:05:40.840Z,99049.27
2018-10-19T20:08:12.072Z,99051.97
2018-10-19T20:10:44.185Z,99056.84
2018-10-19T20:13:15.446Z,99058.77
2018-10-19T20:15:48.003Z,99062.64
2018-10-19T20:18:19.856Z,99064.45
2018-10-19T20:20:52.160Z,99077.07
2018-10-19T20:23:24.416Z,99072.47
2018-10-19T20:25:56.572Z,99072.38
2018-10-19T20:28:30.638Z,99068.59
2018-10-19T20:31:04.440Z,99071.99
2018-10-19T20:33:37.102Z,99074.20
2018-10-19T20:36:09.768Z,99077.08
2018-10-19T20:38:42.490Z,99077.31
2018-10-19T20:41:15.405Z,99083.14
2018-10-19T20:43:50.687Z,99085.58
2018-10-19T20:53:30.559Z,99087.59
2018-10-19T20:56:03.560Z,99090.09
2018-10-19T20:58:35.308Z,99090.94
2018-10-19T21:01:08.293Z,99089.66
2018-10-19T21:03:40.837Z,99095.89
2018-10-19T21:06:14.070Z,99103.93
2018-10-19T21:08:46.512Z,99101.36
2018-10-19T21:11:18.787Z,99101.34
2018-10-19T21:13:51.266Z,99101.12
2018-10-19T21:16:24.753Z,99095.73
2018-10-19T21:18:57.775Z,99106.45
2018-10-19T21:21:31.478Z,99109.11
2018-10-19T21:24:04.921Z,99108.53
2018-10-19T21:26:37.154Z,99106.86
2018-10-19T21:29:09.870Z,99103.12
2018-10-19T21:31:43.367Z,99102.17
2018-10-19T21:34:16.696Z,99109.69
2018-10-19T21:36:48.878Z,99111.73
2018-10-19T21:39:21.297Z,99109.94
2018-10-19T21:41:55.284Z,99110.79
2018-10-19T21:44:33.386Z,99108.66
2018-10-19T21:47:05.715Z,99105.80
2018-10-19T21:49:37.286Z,99112.48
2018-10-19T21:52:09.475Z,99109.75
2018-10-19T21:54:43.364Z,99114.20
2018-10-19T21:57:15.744Z,99120.50
2018-10-19T21:59:48.791Z,99118.95
2018-10-19T22:02:21.990Z,99113.22
2018-10-19T22:04:54.333Z,99118.00
2018-10-19T22:07:27.182Z,99119.56
2018-10-19T22:09:59.389Z,99122.08
2018-10-19T22:12:32.310Z,99118.00
2018-10-19T22:15:03.850Z,99116.35
2018-10-19T22:17:36.271Z,99120.95
2018-10-19T22:20:08.919Z,99119.92
2018-10-19T22:22:40.275Z,99113.95
2018-10-19T22:25:12.580Z,99122.73
2018-10-19T22:27:44.206Z,99122.73
2018-10-19T22:30:15.969Z,99128.70
2018-10-19T22:32:48.251Z,99137.39
2018-10-19T22:35:19.594Z,99136.93
2018-10-19T22:37:50.746Z,99137.73
2018-10-19T22:40:21.724Z,99134.39
2018-10-19T22:42:53.200Z,99137.61
2018-10-19T22:45:25.131Z,99140.48
2018-10-19T22:47:56.492Z,99143.20
2018-10-19T22:50:27.423Z,99148.56
2018-10-19T22:52:58.170Z,99147.46
2018-10-19T22:55:29.500Z,99149.11
2018-10-19T22:58:00.963Z,99149.13
2018-10-19T23:00:31.989Z,99140.19
2018-10-19T23:03:03.187Z,99134.94
2018-10-19T23:05:34.212Z,99139.34
2018-10-19T23:08:05.342Z,99139.09
2018-10-19T23:10:36.429Z,99145.39
2018-10-19T23:13:07.887Z,99147.53
2018-10-19T23:15:39.104Z,99153.91
2018-10-19T23:18:10.302Z,99159.46
2018-10-19T23:20:41.531Z,99160.22
2018-10-19T23:23:13.259Z,99155.86
2018-10-19T23:25:44.259Z,99158.29
2018-10-19T23:28:15.654Z,99166.70
2018-10-19T23:30:46.889Z,99170.84
2018-10-19T23:33:18.021Z,99172.41
2018-10-19T23:35:49.071Z,99172.05
2018-10-19T23:38:20.265Z,99172.67
2018-10-19T23:40:51.264Z,99169.87
2018-10-19T23:43:22.363Z,99172.78
2018-10-19T23:45:53.264Z,99168.03
2018-10-19T23:48:24.330Z,99163.19
2018-10-19T23:50:55.430Z,99164.97
2018-10-19T23:53:26.493Z,99157.09
2018-10-19T23:55:57.602Z,99161.62
2018-10-19T23:58:28.740Z,99162.58
